createdAt,value
2023-05-19T03:53:41.176Z,100.00
2023-05-19T03:56:43.921Z,100.00
2023-05-19T03:59:46.133Z,100.00
2023-05-19T04:02:48.792Z,100.00
2023-05-19T04:05:52.102Z,100.00
2023-05-19T04:08:54.234Z,100.00
2023-05-19T04:11:56.679Z,100.00
2023-05-19T04:14:59.800Z,100.00
2023-05-19T04:18:02.336Z,100.00
2023-05-19T04:21:04.771Z,100.00
2023-05-19T04:24:07.398Z,100.00
2023-05-19T04:27:12.232Z,100.00
2023-05-19T04:30:21.949Z,100.00
2023-05-19T04:33:24.651Z,100.00
2023-05-19T04:36:27.513Z,100.00
2023-05-19T04:39:30.234Z,100.00
2023-05-19T04:42:32.944Z,100.00
2023-05-19T04:45:37.544Z,100.00
2023-05-19T04:48:41.054Z,100.00
2023-05-19T04:51:43.218Z,100.00
2023-05-19T04:54:46.339Z,100.00
2023-05-19T04:57:48.816Z,100.00
2023-05-19T05:00:52.305Z,100.00
2023-05-19T05:03:55.334Z,100.00
2023-05-19T05:06:58.295Z,100.00
2023-05-19T05:10:00.863Z,100.00
2023-05-19T05:13:04.048Z,100.00
2023-05-19T05:16:08.762Z,100.00
2023-05-19T05:19:11.601Z,100.00
2023-05-19T09:31:18.375Z,90.17
2023-05-19T09:34:25.034Z,85.88
2023-05-19T09:37:28.433Z,85.11
2023-05-19T09:40:32.692Z,87.58
2023-05-19T09:43:35.396Z,86.22
2023-05-19T09:46:38.294Z,87.36
2023-05-19T09:49:47.178Z,87.46
2023-05-19T09:52:50.272Z,87.75
2023-05-19T09:55:57.820Z,88.83
2023-05-19T09:59:00.799Z,83.06
2023-05-19T10:02:03.617Z,81.14
2023-05-19T10:05:06.814Z,79.94
2023-05-19T10:08:10.412Z,78.71
2023-05-19T10:11:14.788Z,79.30
2023-05-19T10:14:18.203Z,78.84
2023-05-19T10:17:22.584Z,75.01
2023-05-19T10:20:26.889Z,77.35
2023-05-19T10:23:29.323Z,72.08
2023-05-19T10:26:32.599Z,73.00
2023-05-19T10:29:38.259Z,73.54
2023-05-19T10:32:43.568Z,74.02
2023-05-19T10:35:47.259Z,75.00
2023-05-19T10:39:13.162Z,74.47
2023-05-19T10:42:38.091Z,74.61
2023-05-19T10:45:53.347Z,73.53
2023-05-19T10:48:55.978Z,70.07
2023-05-19T10:51:58.288Z,70.47
2023-05-19T10:55:01.067Z,71.45
2023-05-19T10:58:03.717Z,71.97
2023-05-19T11:01:14.657Z,73.46
2023-05-19T11:04:17.288Z,68.91
2023-05-19T11:07:22.849Z,66.66
2023-05-19T11:10:26.841Z,67.37
2023-05-19T11:13:41.158Z,60.46
2023-05-19T11:16:47.496Z,54.32
2023-05-19T11:19:55.169Z,53.44
2023-05-19T11:23:09.132Z,53.31
2023-05-19T11:26:12.865Z,48.92
2023-05-19T11:29:15.359Z,48.10
2023-05-19T11:32:20.097Z,48.85
2023-05-19T11:35:23.210Z,48.73
2023-05-19T11:38:28.098Z,51.56
2023-05-19T11:41:31.023Z,49.06
2023-05-19T11:44:33.475Z,46.80
2023-05-19T11:47:45.991Z,45.15
2023-05-19T11:51:00.426Z,46.01
2023-05-19T11:54:03.308Z,49.00
2023-05-19T11:57:09.836Z,50.22
2023-05-19T12:00:12.636Z,51.66
2023-05-19T12:03:15.320Z,52.93
2023-05-19T12:06:17.844Z,53.08
2023-05-19T12:09:23.673Z,51.03
2023-05-19T12:12:26.111Z,50.75
2023-05-19T12:15:28.723Z,47.36
2023-05-19T12:18:33.658Z,43.99
2023-05-19T12:21:36.291Z,43.84
2023-05-19T12:24:39.000Z,41.34
2023-05-19T12:27:43.332Z,40.67
2023-05-19T12:30:52.548Z,39.53
2023-05-19T12:33:55.834Z,39.79
2023-05-19T12:36:58.040Z,41.54
2023-05-19T12:40:01.987Z,42.02
2023-05-19T12:43:04.460Z,41.74
2023-05-19T12:46:13.621Z,41.90
2023-05-19T12:49:15.952Z,42.00
2023-05-19T12:52:18.704Z,39.00
2023-05-19T12:55:22.092Z,39.30
2023-05-19T12:58:24.484Z,41.49
2023-05-19T13:01:26.712Z,44.01
2023-05-19T13:04:29.171Z,42.58
2023-05-19T13:07:31.318Z,47.77
2023-05-19T13:10:35.867Z,47.20
2023-05-19T13:13:38.136Z,50.49
2023-05-19T13:16:40.670Z,52.60
2023-05-19T13:19:43.074Z,50.74
2023-05-19T13:22:45.719Z,51.01
2023-05-19T13:25:47.851Z,53.52
2023-05-19T13:28:50.342Z,52.84
2023-05-19T13:31:52.513Z,52.71
2023-05-19T13:34:54.905Z,52.73
2023-05-19T13:37:57.444Z,50.85
2023-05-19T13:40:59.881Z,51.61
2023-05-19T13:44:02.073Z,51.77
2023-05-19T13:47:04.763Z,52.10
2023-05-19T13:50:07.389Z,54.46
2023-05-19T13:53:11.410Z,55.37
2023-05-19T13:56:13.655Z,57.07
2023-05-19T13:59:19.239Z,58.63
2023-05-19T14:02:21.389Z,60.56
2023-05-19T14:05:23.902Z,57.41
2023-05-19T14:08:26.241Z,56.34
2023-05-19T14:14:30.543Z,54.27
2023-05-19T14:23:47.615Z,55.75
2023-05-19T14:26:50.587Z,54.98
2023-05-19T14:29:53.085Z,55.83
2023-05-19T14:32:56.059Z,53.10
2023-05-19T14:36:00.217Z,57.88
2023-05-19T14:39:02.870Z,54.37
2023-05-19T14:42:05.657Z,57.70
2023-05-19T14:45:08.556Z,57.82
2023-05-19T14:48:12.005Z,57.22
2023-05-19T14:51:14.256Z,52.37
2023-05-19T14:54:16.653Z,50.15
2023-05-19T14:57:18.806Z,48.84
